| time (UTC) | temp F | wind direction | speed MPH | gust MPH | rain 1hr in | rain 24hr in | rain mn in | humidity % | barometer mb |
| 20260509200100 | 92 | 0 | 0.0 | 4.0 | 0.00 | 0.00 | 0.00 | 45 | 1009.0 |
| 20260509194558 | 93 | 0 | 0.0 | 2.0 | 0.00 | 0.00 | 0.00 | 40 | 1009.1 |
| 20260509193119 | 91 | 0 | 0.0 | 4.0 | 0.00 | 0.00 | 0.00 | 44 | 1009.2 |
| 20260509191612 | 91 | 352 | 1.0 | 6.0 | 0.00 | 0.00 | 0.00 | 40 | 1009.4 |
| 20260509190053 | 91 | 0 | 0.0 | 4.0 | 0.00 | 0.00 | 0.00 | 41 | 1009.5 |
| 20260509184551 | 90 | 0 | 0.0 | 5.0 | 0.00 | 0.00 | 0.00 | 44 | 1009.6 |
| 20260509183054 | 88 | 0 | 0.0 | 3.0 | 0.00 | 0.00 | 0.00 | 50 | 1009.8 |
| 20260509181558 | 87 | 0 | 0.0 | 6.0 | 0.00 | 0.00 | 0.00 | 47 | 1010.0 |
| 20260509180104 | 88 | 0 | 1.0 | 8.0 | 0.00 | 0.00 | 0.00 | 47 | 1010.1 |
| 20260509174556 | 87 | 0 | 0.0 | 6.0 | 0.00 | 0.00 | 0.00 | 48 | 1010.3 |
| 20260509173101 | 87 | 0 | 0.0 | 5.0 | 0.00 | 0.00 | 0.00 | 48 | 1010.4 |
| 20260509171551 | 84 | 0 | 1.0 | 11.0 | 0.00 | 0.00 | 0.00 | 50 | 1010.7 |
| 20260509170100 | 84 | 0 | 1.0 | 12.0 | 0.00 | 0.00 | 0.00 | 53 | 1010.7 |
| 20260509164607 | 84 | 329 | 2.0 | 11.0 | 0.00 | 0.00 | 0.00 | 52 | 1010.8 |
| 20260509163055 | 84 | 0 | 0.0 | 9.0 | 0.00 | 0.00 | 0.00 | 58 | 1010.8 |
| 20260509161600 | 82 | 0 | 1.0 | 8.0 | 0.00 | 0.00 | 0.00 | 57 | 1010.9 |
| 20260509160057 | 82 | 329 | 0.0 | 5.0 | 0.00 | 0.00 | 0.00 | 57 | 1010.9 |
| 20260509154554 | 81 | 0 | 0.0 | 6.0 | 0.00 | 0.00 | 0.00 | 61 | 1010.8 |
| 20260509153053 | 81 | 0 | 0.0 | 3.0 | 0.00 | 0.00 | 0.00 | 59 | 1010.6 |
| 20260509151604 | 79 | 0 | 0.0 | 9.0 | 0.00 | 0.00 | 0.00 | 63 | 1010.6 |
| 20260509150059 | 77 | 0 | 1.0 | 6.0 | 0.00 | 0.00 | 0.00 | 64 | 1010.6 |
| 20260509144553 | 77 | 0 | 2.0 | 8.0 | 0.00 | 0.00 | 0.00 | 65 | 1010.6 |
| 20260509143101 | 77 | 0 | 0.0 | 5.0 | 0.00 | 0.00 | 0.00 | 70 | 1010.5 |
| 20260509141556 | 74 | 0 | 0.0 | 6.0 | 0.00 | 0.00 | 0.00 | 75 | 1010.7 |
| 20260509140059 | 72 | 0 | 2.0 | 8.0 | 0.00 | 0.00 | 0.00 | 78 | 1010.7 |
| 20260509134559 | 70 | 0 | 1.0 | 8.0 | 0.00 | 0.00 | 0.00 | 80 | 1010.9 |
| 20260509133059 | 69 | 0 | 0.0 | 6.0 | 0.00 | 0.00 | 0.00 | 80 | 1010.8 |
| 20260509131602 | 68 | 336 | 0.0 | 6.0 | 0.00 | 0.00 | 0.00 | 81 | 1010.6 |
| 20260509130109 | 67 | 0 | 0.0 | 6.0 | 0.00 | 0.00 | 0.00 | 81 | 1010.6 |
| 20260509124558 | 67 | 274 | 0.0 | 3.0 | 0.00 | 0.00 | 0.00 | 83 | 1010.7 |
| 20260509123059 | 66 | 0 | 0.0 | 4.0 | 0.00 | 0.00 | 0.00 | 84 | 1010.4 |
| 20260509121556 | 65 | 0 | 0.0 | 2.0 | 0.00 | 0.00 | 0.00 | 84 | 1010.5 |
| 20260509120101 | 65 | 0 | 0.0 | 0.0 | 0.00 | 0.00 | 0.00 | 84 | 1010.4 |
| 20260509114551 | 65 | 0 | 0.0 | 0.0 | 0.00 | 0.00 | 0.00 | 82 | 1010.0 |
| 20260509113052 | 66 | 0 | 0.0 | 0.0 | 0.00 | 0.00 | 0.00 | 82 | 1009.7 |
| 20260509111558 | 66 | 0 | 0.0 | 0.0 | 0.00 | 0.00 | 0.00 | 81 | 1009.2 |
| 20260509110053 | 67 | 0 | 0.0 | 6.0 | 0.00 | 0.00 | 0.00 | 78 | 1009.3 |
| 20260509104557 | 67 | 333 | 1.0 | 10.0 | 0.00 | 0.00 | 0.00 | 75 | 1009.2 |
| 20260509103053 | 68 | 0 | 1.0 | 9.0 | 0.00 | 0.00 | 0.00 | 72 | 1009.4 |
| 20260509101553 | 69 | 0 | 2.0 | 11.0 | 0.00 | 0.00 | 0.00 | 70 | 1009.4 |
| 20260509100054 | 69 | 0 | 0.0 | 6.0 | 0.00 | 0.00 | 0.00 | 83 | 1009.3 |
| 20260509094553 | 70 | 319 | 3.0 | 18.0 | 0.00 | 0.00 | 0.00 | 83 | 1009.1 |
| 20260509093055 | 70 | 0 | 1.0 | 10.0 | 0.00 | 0.00 | 0.00 | 88 | 1006.9 |
| 20260509091600 | 69 | 0 | 1.0 | 14.0 | 0.00 | 0.00 | 0.00 | 89 | 1005.9 |
| 20260509090052 | 69 | 0 | 1.0 | 9.0 | 0.00 | 0.00 | 0.00 | 88 | 1006.6 |
| 20260509084553 | 68 | 202 | 1.0 | 11.0 | 0.00 | 0.00 | 0.00 | 89 | 1007.1 |
| 20260509083051 | 67 | 238 | 0.0 | 10.0 | 0.00 | 0.00 | 0.00 | 89 | 1007.4 |
| 20260509081555 | 67 | 0 | 0.0 | 4.0 | 0.00 | 0.00 | 0.00 | 89 | 1008.0 |
| 20260509080051 | 68 | 0 | 0.0 | 5.0 | 0.00 | 0.00 | 0.00 | 90 | 1008.5 |
| 20260509074553 | 68 | 0 | 0.0 | 9.0 | 0.00 | 0.00 | 0.00 | 90 | 1008.8 |
| 20260509073053 | 68 | 0 | 0.0 | 4.0 | 0.00 | 0.00 | 0.00 | 88 | 1009.7 |
| 20260509071559 | 69 | 0 | 0.0 | 0.0 | 0.00 | 0.00 | 0.00 | 88 | 1010.8 |
| 20260509070059 | 69 | 0 | 1.0 | 8.0 | 0.00 | 0.00 | 0.00 | 89 | 1011.9 |
| 20260509064555 | 68 | 0 | 0.0 | 3.0 | 0.00 | 0.00 | 0.00 | 91 | 1012.2 |
| 20260509063052 | 68 | 0 | 0.0 | 2.0 | 0.00 | 0.00 | 0.00 | 91 | 1011.8 |
| 20260509061614 | 68 | 0 | 0.0 | 0.0 | 0.00 | 0.00 | 0.00 | 91 | 1011.9 |
| 20260509060117 | 68 | 0 | 0.0 | 3.0 | 0.00 | 0.00 | 0.00 | 91 | 1011.4 |
| 20260509054602 | 67 | 0 | 0.0 | 0.0 | 0.00 | 0.00 | 0.00 | 91 | 1011.2 |
| 20260509053052 | 68 | 0 | 0.0 | 2.0 | 0.00 | 0.00 | 0.00 | 90 | 1011.2 |
| 20260509051556 | 68 | 0 | 0.0 | 0.0 | 0.00 | 0.00 | 0.00 | 90 | 1010.3 |
| 20260509050125 | 68 | 0 | 0.0 | 0.0 | 0.00 | 0.00 | 0.00 | 89 | 1010.2 |
| 20260509044603 | 69 | 0 | 0.0 | 0.0 | 0.00 | 0.00 | 0.00 | 88 | 1010.4 |
| 20260509043051 | 69 | 0 | 0.0 | 0.0 | 0.00 | 0.00 | 0.00 | 88 | 1010.3 |
| 20260509041551 | 69 | 0 | 0.0 | 0.0 | 0.00 | 0.00 | 0.00 | 88 | 1010.4 |
| 20260509040057 | 70 | 0 | 0.0 | 0.0 | 0.00 | 0.00 | 0.00 | 87 | 1010.1 |
| 20260509034553 | 70 | 0 | 0.0 | 2.0 | 0.00 | 0.00 | 0.00 | 87 | 1009.7 |
| 20260509033052 | 70 | 0 | 0.0 | 3.0 | 0.00 | 0.00 | 0.00 | 87 | 1009.2 |
| 20260509031553 | 70 | 0 | 0.0 | 5.0 | 0.00 | 0.00 | 0.00 | 87 | 1009.1 |
| 20260509030054 | 70 | 0 | 0.0 | 4.0 | 0.00 | 0.00 | 0.00 | 87 | 1009.1 |
| 20260509024553 | 70 | 0 | 0.0 | 5.0 | 0.00 | 0.00 | 0.00 | 87 | 1008.3 |
| 20260509023102 | 70 | 0 | 0.0 | 0.0 | 0.00 | 0.00 | 0.00 | 86 | 1008.5 |
| 20260509021559 | 71 | 0 | 0.0 | 0.0 | 0.00 | 0.00 | 0.00 | 85 | 1008.6 |
| 20260509020054 | 71 | 0 | 0.0 | 0.0 | 0.00 | 0.00 | 0.00 | 84 | 1008.6 |
| 20260509014552 | 71 | 0 | 0.0 | 0.0 | 0.00 | 0.00 | 0.00 | 83 | 1008.8 |
| 20260509013100 | 72 | 0 | 0.0 | 0.0 | 0.00 | 0.00 | 0.00 | 82 | 1008.7 |
| 20260509011556 | 72 | 0 | 0.0 | 0.0 | 0.00 | 0.00 | 0.00 | 81 | 1008.5 |
| 20260509010053 | 72 | 0 | 0.0 | 0.0 | 0.00 | 0.00 | 0.00 | 79 | 1008.2 |
| 20260509004553 | 73 | 0 | 0.0 | 0.0 | 0.00 | 0.00 | 0.00 | 79 | 1007.8 |
| 20260509003103 | 73 | 0 | 0.0 | 0.0 | 0.00 | 0.00 | 0.00 | 78 | 1007.8 |
| 20260509001553 | 73 | 0 | 0.0 | 0.0 | 0.00 | 0.00 | 0.00 | 78 | 1008.2 |
| 20260509000104 | 73 | 0 | 0.0 | 3.0 | 0.00 | 0.00 | 0.00 | 77 | 1008.5 |
| 20260508234557 | 73 | 0 | 0.0 | 1.0 | 0.00 | 0.00 | 0.00 | 77 | 1008.5 |
| 20260508233054 | 73 | 104 | 0.0 | 4.0 | 0.00 | 0.00 | 0.00 | 77 | 1008.5 |
| 20260508231558 | 73 | 0 | 0.0 | 0.0 | 0.00 | 0.00 | 0.00 | 77 | 1008.4 |
| 20260508230105 | 73 | 0 | 0.0 | 3.0 | 0.00 | 0.00 | 0.00 | 76 | 1008.5 |
| 20260508224553 | 74 | 0 | 0.0 | 7.0 | 0.00 | 0.00 | 0.00 | 74 | 1008.5 |
| 20260508223055 | 74 | 0 | 0.0 | 7.0 | 0.00 | 0.00 | 0.00 | 75 | 1008.4 |
| 20260508221559 | 73 | 0 | 1.0 | 8.0 | 0.00 | 0.00 | 0.00 | 78 | 1008.3 |
| 20260508220059 | 72 | 114 | 1.0 | 8.0 | 0.00 | 0.00 | 0.00 | 78 | 1008.5 |
| 20260508214600 | 72 | 0 | 1.0 | 8.0 | 0.00 | 0.00 | 0.00 | 76 | 1008.7 |
| 20260508213058 | 71 | 111 | 0.0 | 8.0 | 0.00 | 0.00 | 0.00 | 78 | 1009.0 |
| 20260508211558 | 71 | 102 | 0.0 | 9.0 | 0.00 | 0.00 | 0.00 | 75 | 1009.5 |
| 20260508210054 | 70 | 0 | 0.0 | 7.0 | 0.00 | 0.00 | 0.00 | 74 | 1009.9 |
| 20260508204602 | 70 | 0 | 0.0 | 6.0 | 0.00 | 0.00 | 0.00 | 77 | 1010.2 |
| 20260508203055 | 71 | 0 | 0.0 | 4.0 | 0.00 | 0.00 | 0.00 | 77 | 1010.3 |
| 20260508201559 | 68 | 0 | 0.0 | 3.0 | 0.00 | 0.00 | 0.00 | 78 | 1010.6 |